Time;durP1;ratioP1;P1;durP2;ratioP2;P2;SDS_P1;SDS_P2;PMS_P1;PMS_P2;Temp;Humidity;BMP_temperature;BMP_pressure;BME280_temperature;BME280_humidity;BME280_pressure;Samples;Min_cycle;Max_cycle;Signal;HPM_P1;HPM_P2
2023/01/03 00:00:31;;;;;;;2.63;2.15;;;10.30;99.90;;;;;;2550729;23;20043;-83
2023/01/03 00:01:32;;;;;;;2.85;2.33;;;10.30;99.90;;;;;;2563998;23;19996;-82
2023/01/03 00:02:33;;;;;;;3.17;2.15;;;10.30;99.90;;;;;;2564446;23;20007;-81
2023/01/03 00:03:33;;;;;;;2.28;2.03;;;10.30;99.90;;;;;;2550566;23;20013;-80
2023/01/03 00:04:34;;;;;;;2.42;2.20;;;10.30;99.90;;;;;;2551165;23;19997;-82
2023/01/03 00:05:35;;;;;;;2.53;2.05;;;10.30;99.90;;;;;;2562956;23;20028;-82
2023/01/03 00:06:47;;;;;;;3.20;2.13;;;10.30;99.90;;;;;;2563273;23;19997;-82
2023/01/03 00:07:48;;;;;;;2.58;2.28;;;10.30;99.90;;;;;;2562983;23;20107;-84
2023/01/03 00:08:48;;;;;;;2.38;2.00;;;10.30;99.90;;;;;;2562159;23;20112;-83
2023/01/03 00:09:49;;;;;;;2.47;2.10;;;10.30;99.90;;;;;;2562260;23;20008;-83
2023/01/03 00:10:49;;;;;;;2.10;1.85;;;10.30;99.90;;;;;;2565180;23;20450;-82
2023/01/03 00:13:12;;;;;;;2.38;2.17;;;10.20;99.90;;;;;;2565079;23;20039;-83
2023/01/03 00:14:17;;;;;;;3.25;2.40;;;10.30;99.90;;;;;;2562632;23;20094;-85
2023/01/03 00:15:17;;;;;;;3.00;2.30;;;10.20;99.90;;;;;;2550075;23;20023;-84
2023/01/03 00:16:19;;;;;;;2.85;2.20;;;10.20;99.90;;;;;;2549765;23;20009;-81
2023/01/03 00:17:20;;;;;;;2.90;2.10;;;10.30;99.90;;;;;;2549457;23;20009;-83
2023/01/03 00:18:21;;;;;;;2.20;2.00;;;10.30;99.90;;;;;;2550486;23;20446;-82
2023/01/03 00:19:23;;;;;;;2.60;2.30;;;10.30;99.90;;;;;;2551672;23;19997;-83
2023/01/03 00:20:23;;;;;;;2.30;2.10;;;10.30;99.90;;;;;;2551355;23;20104;-83
2023/01/03 00:21:24;;;;;;;2.15;1.90;;;10.30;99.90;;;;;;2549169;23;20001;-82
2023/01/03 00:22:25;;;;;;;1.90;1.80;;;10.30;99.90;;;;;;2536815;23;20008;-82
2023/01/03 00:23:25;;;;;;;1.85;1.65;;;10.20;99.90;;;;;;2549423;23;20004;-82
2023/01/03 00:24:26;;;;;;;3.15;2.10;;;10.20;99.90;;;;;;2564934;23;20005;-83
2023/01/03 00:25:27;;;;;;;2.10;1.90;;;10.20;99.90;;;;;;2549547;23;20009;-83
2023/01/03 00:26:28;;;;;;;2.42;2.22;;;10.20;99.90;;;;;;2537793;23;20077;-83
2023/01/03 00:27:28;;;;;;;2.45;2.13;;;10.20;99.90;;;;;;2550313;23;20035;-82
2023/01/03 00:28:30;;;;;;;3.08;2.20;;;10.20;99.90;;;;;;2565422;23;20009;-81
2023/01/03 00:29:31;;;;;;;3.05;2.30;;;10.10;99.90;;;;;;2538231;23;20498;-80
2023/01/03 00:30:31;;;;;;;2.22;2.00;;;10.20;99.90;;;;;;2537837;23;20005;-81
2023/01/03 00:31:34;;;;;;;2.65;2.20;;;10.10;99.90;;;;;;2566309;23;20039;-82
2023/01/03 00:32:34;;;;;;;2.78;2.13;;;10.10;99.90;;;;;;2566526;23;20201;-82
2023/01/03 00:33:37;;;;;;;2.47;2.15;;;10.10;99.90;;;;;;2564264;23;20000;-80
2023/01/03 00:34:37;;;;;;;2.55;2.08;;;10.00;99.90;;;;;;2564573;23;20009;-82
2023/01/03 00:35:38;;;;;;;2.38;2.00;;;10.00;99.90;;;;;;2567476;23;20021;-82
2023/01/03 00:36:39;;;;;;;2.15;1.90;;;10.00;99.90;;;;;;2552768;23;20060;-82
2023/01/03 00:37:39;;;;;;;2.50;2.00;;;9.90;99.90;;;;;;2553037;23;20164;-82
2023/01/03 00:38:40;;;;;;;2.20;2.00;;;9.90;99.90;;;;;;2553250;23;20012;-83
2023/01/03 00:39:40;;;;;;;2.55;2.00;;;9.90;99.90;;;;;;2553597;23;20005;-82
2023/01/03 00:40:41;;;;;;;3.88;2.40;;;9.80;99.90;;;;;;2568368;23;19993;-83
2023/01/03 00:41:41;;;;;;;2.22;2.03;;;9.80;99.90;;;;;;2552999;23;20012;-84
2023/01/03 00:44:01;;;;;;;2.40;2.10;;;9.70;99.90;;;;;;2566422;23;19996;-83
2023/01/03 00:45:02;;;;;;;2.40;1.80;;;9.60;99.90;;;;;;2561338;23;20012;-82
2023/01/03 00:46:04;;;;;;;2.20;2.00;;;9.60;99.90;;;;;;2565367;23;20449;-84
2023/01/03 00:47:05;;;;;;;2.88;2.20;;;9.60;99.90;;;;;;2567431;23;20012;-84
2023/01/03 00:48:05;;;;;;;2.38;2.10;;;9.60;99.90;;;;;;2552091;23;20015;-83
2023/01/03 00:49:07;;;;;;;2.42;2.15;;;9.50;99.90;;;;;;2552229;23;20386;-83
2023/01/03 00:50:07;;;;;;;3.65;1.90;;;9.50;99.90;;;;;;2565257;23;20088;-84
2023/01/03 00:51:11;;;;;;;2.92;2.03;;;9.50;99.90;;;;;;2554950;23;20525;-84
2023/01/03 00:52:11;;;;;;;2.20;1.90;;;9.50;99.90;;;;;;2551671;23;20012;-84
2023/01/03 00:53:13;;;;;;;2.78;2.10;;;9.50;99.90;;;;;;2563772;23;20087;-78
2023/01/03 00:54:14;;;;;;;2.58;1.83;;;9.50;99.90;;;;;;2563262;23;20439;-78
2023/01/03 00:55:14;;;;;;;1.95;1.80;;;9.50;99.90;;;;;;2549444;23;20076;-78
2023/01/03 00:56:18;;;;;;;2.00;1.80;;;9.50;99.90;;;;;;2549557;23;20450;-77
2023/01/03 00:57:18;;;;;;;2.55;1.77;;;9.50;99.90;;;;;;2551516;23;20080;-78
2023/01/03 00:58:19;;;;;;;2.10;1.90;;;9.50;99.90;;;;;;2549611;23;20611;-80
2023/01/03 00:59:20;;;;;;;2.25;2.03;;;9.50;99.90;;;;;;2563149;23;20012;-79
2023/01/03 01:00:21;;;;;;;2.33;1.98;;;9.50;99.90;;;;;;2562530;23;20009;-79
2023/01/03 01:01:24;;;;;;;3.13;1.90;;;9.50;99.90;;;;;;2564660;23;20004;-80
2023/01/03 01:02:24;;;;;;;2.83;2.10;;;9.50;99.90;;;;;;2549409;23;20005;-79
2023/01/03 01:03:25;;;;;;;2.22;2.00;;;9.50;99.90;;;;;;2549550;23;20503;-79
2023/01/03 01:04:30;;;;;;;2.30;1.70;;;9.50;99.90;;;;;;2537018;23;20009;-79
2023/01/03 01:05:31;;;;;;;2.17;1.98;;;9.50;99.90;;;;;;2526644;23;20086;-79
2023/01/03 01:06:43;;;;;;;2.28;1.73;;;9.50;99.90;;;;;;2551699;23;20421;-79
2023/01/03 01:07:44;;;;;;;2.03;1.83;;;9.50;99.90;;;;;;2564948;23;20013;-81
2023/01/03 01:08:45;;;;;;;1.95;1.80;;;9.40;99.90;;;;;;2561874;23;20083;-80
2023/01/03 01:09:46;;;;;;;2.42;1.80;;;9.40;99.90;;;;;;2561779;23;20016;-77
2023/01/03 01:11:00;;;;;;;2.83;1.90;;;9.40;99.90;;;;;;2562619;23;20076;-78
2023/01/03 01:12:02;;;;;;;2.22;2.00;;;9.50;99.90;;;;;;2562346;23;20040;-78
2023/01/03 01:13:02;;;;;;;3.47;2.00;;;9.40;99.90;;;;;;2562599;23;20040;-78
2023/01/03 01:14:18;;;;;;;2.45;1.95;;;9.40;99.90;;;;;;2562619;23;20004;-77
2023/01/03 01:15:19;;;;;;;3.22;2.20;;;9.40;99.90;;;;;;2562285;23;20008;-77
2023/01/03 01:16:30;;;;;;;2.92;2.05;;;9.30;99.90;;;;;;2564678;23;20039;-78
2023/01/03 01:17:30;;;;;;;5.10;2.20;;;9.30;99.90;;;;;;2551144;23;20505;-78
2023/01/03 01:18:32;;;;;;;2.25;1.90;;;9.30;99.90;;;;;;2551070;23;20033;-78
2023/01/03 01:19:38;;;;;;;2.25;1.88;;;9.30;99.90;;;;;;2562375;23;20512;-78
2023/01/03 01:20:39;;;;;;;2.63;2.20;;;9.30;99.90;;;;;;2562286;23;20023;-74
2023/01/03 01:21:40;;;;;;;2.67;2.28;;;9.30;99.90;;;;;;2549215;23;20074;-80
2023/01/03 01:22:40;;;;;;;3.33;2.17;;;9.30;99.90;;;;;;2548960;23;20366;-74
2023/01/03 01:23:42;;;;;;;2.60;2.40;;;9.30;99.90;;;;;;2563762;23;20168;-78
2023/01/03 01:24:42;;;;;;;3.83;2.40;;;9.30;99.90;;;;;;2564713;23;20016;-74
2023/01/03 01:25:43;;;;;;;3.53;2.40;;;9.30;99.90;;;;;;2562447;23;20024;-74
2023/01/03 01:26:44;;;;;;;2.92;2.13;;;9.30;99.90;;;;;;2562330;23;20031;-74
2023/01/03 01:27:44;;;;;;;2.40;2.20;;;9.30;99.90;;;;;;2564473;23;20027;-74
2023/01/03 01:28:46;;;;;;;3.10;2.10;;;9.30;99.90;;;;;;2562305;23;20092;-74
2023/01/03 01:29:46;;;;;;;3.95;2.30;;;9.30;99.90;;;;;;2562369;23;20441;-74
2023/01/03 01:30:47;;;;;;;2.55;2.10;;;9.30;99.90;;;;;;2549233;23;20012;-74
2023/01/03 01:31:48;;;;;;;2.10;1.83;;;9.30;99.90;;;;;;2549374;23;20002;-75
2023/01/03 01:32:48;;;;;;;2.33;2.13;;;9.30;99.90;;;;;;2564679;23;20035;-74
2023/01/03 01:33:50;;;;;;;2.78;2.05;;;9.30;99.90;;;;;;2562375;23;20008;-73
2023/01/03 01:34:51;;;;;;;3.05;2.00;;;9.30;99.90;;;;;;2562383;23;20106;-74
2023/01/03 01:35:52;;;;;;;2.30;2.10;;;9.30;99.90;;;;;;2563810;23;20013;-74
2023/01/03 01:36:52;;;;;;;2.80;2.10;;;9.30;99.90;;;;;;2564372;23;20011;-73
2023/01/03 01:37:53;;;;;;;2.58;2.08;;;9.30;99.90;;;;;;2562173;23;20012;-73
2023/01/03 01:38:59;;;;;;;2.30;2.10;;;9.30;99.90;;;;;;2562130;23;20060;-73
2023/01/03 01:40:00;;;;;;;2.38;2.17;;;9.30;99.90;;;;;;2562164;23;20108;-73
2023/01/03 01:41:01;;;;;;;2.72;2.33;;;9.30;99.90;;;;;;2549303;23;20406;-74
2023/01/03 01:44:58;;;;;;;2.58;2.25;;;9.30;99.90;;;;;;2550274;23;20008;-74
2023/01/03 01:46:11;;;;;;;2.50;2.10;;;9.30;99.90;;;;;;2538720;23;20093;-74
2023/01/03 01:47:27;;;;;;;2.38;2.17;;;9.30;99.90;;;;;;2541873;23;20009;-74
2023/01/03 01:48:28;;;;;;;3.05;2.20;;;9.30;99.90;;;;;;2562249;23;20402;-74
2023/01/03 01:49:28;;;;;;;3.08;2.40;;;9.30;99.90;;;;;;2548835;23;20546;-74
2023/01/03 01:50:34;;;;;;;2.80;2.10;;;9.30;99.90;;;;;;2551107;23;20005;-74
2023/01/03 01:51:35;;;;;;;3.03;2.40;;;9.30;99.90;;;;;;2548906;23;20398;-74
2023/01/03 01:52:39;;;;;;;2.50;2.30;;;9.30;99.90;;;;;;2549081;23;20177;-74
2023/01/03 01:53:41;;;;;;;3.42;2.05;;;9.30;99.90;;;;;;2562224;23;20164;-74
2023/01/03 01:54:42;;;;;;;2.30;2.10;;;9.30;99.90;;;;;;2562065;23;20132;-74
2023/01/03 01:55:47;;;;;;;3.10;2.40;;;9.40;99.90;;;;;;2564520;23;20009;-74
2023/01/03 01:56:51;;;;;;;2.50;2.30;;;9.40;99.90;;;;;;2564405;23;20118;-74
2023/01/03 01:57:52;;;;;;;2.42;2.20;;;9.40;99.90;;;;;;2564379;23;20016;-74
2023/01/03 01:58:54;;;;;;;2.42;2.17;;;9.40;99.90;;;;;;2562532;23;20041;-74
2023/01/03 01:59:56;;;;;;;2.85;2.40;;;9.40;99.90;;;;;;2562350;23;20083;-74
2023/01/03 02:00:57;;;;;;;3.30;2.70;;;9.40;99.90;;;;;;2562175;23;20055;-74
2023/01/03 02:01:58;;;;;;;3.10;2.28;;;9.40;99.90;;;;;;2562657;23;20011;-74
2023/01/03 02:02:59;;;;;;;3.10;2.42;;;9.40;99.90;;;;;;2562312;23;20016;-73
2023/01/03 02:04:08;;;;;;;3.10;2.40;;;9.40;99.90;;;;;;2564289;23;20128;-73
2023/01/03 02:05:09;;;;;;;3.17;2.53;;;9.40;99.90;;;;;;2564257;23;20021;-75
2023/01/03 02:06:14;;;;;;;2.47;2.22;;;9.40;99.90;;;;;;2562158;23;20679;-74
2023/01/03 02:07:16;;;;;;;3.25;2.42;;;9.40;99.90;;;;;;2562680;23;20004;-74
2023/01/03 02:08:18;;;;;;;3.40;2.40;;;9.40;99.90;;;;;;2562700;23;20001;-74
2023/01/03 02:09:18;;;;;;;2.72;2.50;;;9.40;99.90;;;;;;2562964;23;20043;-74
2023/01/03 02:10:34;;;;;;;2.60;2.40;;;9.40;99.90;;;;;;2565342;23;20016;-74
2023/01/03 02:13:32;;;;;;;3.20;2.47;;;9.40;99.90;;;;;;2565064;23;20123;-74
2023/01/03 02:15:19;;;;;;;3.63;2.47;;;9.40;99.90;;;;;;2563007;23;20019;-75
2023/01/03 02:16:35;;;;;;;3.20;2.25;;;9.40;99.90;;;;;;2563243;23;20017;-74
2023/01/03 02:18:01;;;;;;;2.78;2.25;;;9.40;99.90;;;;;;2563035;23;20342;-74
2023/01/03 02:19:07;;;;;;;3.78;2.50;;;9.40;99.90;;;;;;2562613;23;20011;-74
2023/01/03 02:20:18;;;;;;;2.92;2.45;;;9.40;99.90;;;;;;2549662;23;20024;-74
2023/01/03 02:22:06;;;;;;;2.97;2.50;;;9.40;99.90;;;;;;2552065;23;20064;-74
2023/01/03 02:23:46;;;;;;;3.72;2.33;;;9.30;99.90;;;;;;2562988;23;20111;-73
2023/01/03 02:25:05;;;;;;;3.20;2.55;;;9.30;99.90;;;;;;2562927;23;20131;-74
2023/01/03 02:26:16;;;;;;;3.05;2.60;;;9.30;99.90;;;;;;2563026;23;20013;-73
2023/01/03 02:27:46;;;;;;;2.65;2.42;;;9.30;99.90;;;;;;2563146;23;20004;-74
2023/01/03 02:29:11;;;;;;;2.88;2.33;;;9.30;99.90;;;;;;2562990;23;20036;-75
2023/01/03 02:30:26;;;;;;;2.80;2.35;;;9.30;99.90;;;;;;2562853;23;20404;-75
2023/01/03 02:31:37;;;;;;;2.55;2.30;;;9.30;99.90;;;;;;2551893;23;20487;-74
2023/01/03 02:32:51;;;;;;;2.85;2.50;;;9.30;99.90;;;;;;2541384;23;20001;-74
2023/01/03 02:34:26;;;;;;;2.70;2.40;;;9.20;99.90;;;;;;2554719;23;20013;-73
2023/01/03 02:35:35;;;;;;;3.03;2.38;;;9.20;99.90;;;;;;2558242;23;20013;-73
2023/01/03 02:37:01;;;;;;;2.88;2.42;;;9.20;99.90;;;;;;2565064;23;20434;-72
2023/01/03 02:38:29;;;;;;;3.63;2.30;;;9.20;99.90;;;;;;2562855;23;20016;-73
2023/01/03 02:39:52;;;;;;;2.88;2.50;;;9.10;99.90;;;;;;2564871;23;20005;-72
2023/01/03 02:41:10;;;;;;;2.80;2.50;;;9.10;99.90;;;;;;2562836;23;20000;-72
2023/01/03 02:44:10;;;;;;;2.60;2.30;;;9.10;99.90;;;;;;2562556;23;20503;-72
2023/01/03 02:45:17;;;;;;;2.38;2.17;;;9.10;99.90;;;;;;2559138;23;21071;-73
2023/01/03 02:46:36;;;;;;;2.92;2.28;;;9.10;99.90;;;;;;2551698;23;20005;-73
2023/01/03 02:47:56;;;;;;;3.28;2.30;;;9.10;99.90;;;;;;2553545;23;20056;-73
2023/01/03 02:49:33;;;;;;;2.45;2.20;;;9.10;99.90;;;;;;2549743;23;20012;-72
2023/01/03 02:50:43;;;;;;;3.25;2.45;;;9.10;99.90;;;;;;2557336;23;20008;-73
2023/01/03 02:51:49;;;;;;;2.80;2.50;;;9.10;99.90;;;;;;2563072;23;20004;-73
2023/01/03 02:52:53;;;;;;;2.53;2.30;;;9.10;99.90;;;;;;2562688;23;20377;-73
2023/01/03 02:53:56;;;;;;;2.80;2.50;;;9.10;99.90;;;;;;2562768;23;20032;-72
2023/01/03 02:55:20;;;;;;;2.63;2.42;;;9.10;99.90;;;;;;2562758;23;20349;-72
2023/01/03 02:56:43;;;;;;;3.53;2.30;;;9.10;99.90;;;;;;2562644;23;20035;-73
2023/01/03 02:57:49;;;;;;;3.33;2.28;;;9.20;99.90;;;;;;2564442;23;20012;-73
2023/01/03 02:58:56;;;;;;;2.38;2.17;;;9.20;99.90;;;;;;2550347;23;20381;-73
2023/01/03 03:00:12;;;;;;;2.50;2.30;;;9.20;99.90;;;;;;2550963;23;20260;-73
2023/01/03 03:01:15;;;;;;;2.53;2.10;;;9.20;99.90;;;;;;2564767;23;20049;-73
2023/01/03 03:02:18;;;;;;;4.07;2.25;;;9.20;99.90;;;;;;2549513;23;20013;-73
2023/01/03 03:03:23;;;;;;;2.55;2.22;;;9.20;99.90;;;;;;2549839;23;20413;-73
2023/01/03 03:04:24;;;;;;;3.67;2.25;;;9.30;99.90;;;;;;2562765;23;20080;-73
2023/01/03 03:05:30;;;;;;;3.15;2.40;;;9.30;99.90;;;;;;2562581;23;20040;-73
2023/01/03 03:06:37;;;;;;;2.97;2.50;;;9.30;99.90;;;;;;2549364;23;20357;-73
2023/01/03 03:07:39;;;;;;;2.45;2.25;;;9.30;99.90;;;;;;2550914;23;20040;-73
2023/01/03 03:08:43;;;;;;;2.25;2.00;;;9.30;99.90;;;;;;2562736;23;20068;-74
2023/01/03 03:13:49;;;;;;;3.50;2.38;;;9.30;99.90;;;;;;2562827;23;20511;-74
2023/01/03 03:14:53;;;;;;;3.08;2.10;;;9.30;99.90;;;;;;2562804;23;20004;-75
2023/01/03 03:16:14;;;;;;;3.05;2.08;;;9.30;99.90;;;;;;2565067;23;20036;-74
2023/01/03 03:17:19;;;;;;;1.98;1.88;;;9.30;99.90;;;;;;2563303;23;20012;-74
2023/01/03 03:18:38;;;;;;;2.38;2.10;;;9.30;99.90;;;;;;2562395;23;20012;-74
2023/01/03 03:25:25;;;;;;;3.42;2.28;;;9.20;99.90;;;;;;2562471;23;20009;-74
2023/01/03 03:26:36;;;;;;;2.30;2.10;;;9.20;99.90;;;;;;2562439;23;20058;-74
2023/01/03 03:29:10;;;;;;;2.35;2.05;;;9.20;99.90;;;;;;2562523;23;20497;-74
2023/01/03 03:30:14;;;;;;;3.78;2.40;;;9.20;99.90;;;;;;2562447;23;20119;-75
2023/01/03 03:31:21;;;;;;;4.47;2.53;;;9.20;99.90;;;;;;2562671;23;20464;-74
2023/01/03 03:32:25;;;;;;;3.97;2.30;;;9.20;99.90;;;;;;2562679;23;20008;-74
2023/01/03 03:33:29;;;;;;;2.20;2.00;;;9.20;99.90;;;;;;2564885;23;20003;-75
2023/01/03 03:34:36;;;;;;;2.30;2.10;;;9.10;99.90;;;;;;2564550;23;20534;-74
2023/01/03 03:35:48;;;;;;;2.25;2.00;;;9.20;99.90;;;;;;2564686;23;20032;-74
2023/01/03 03:37:13;;;;;;;2.50;2.30;;;9.10;99.90;;;;;;2564690;23;20028;-74
2023/01/03 03:38:19;;;;;;;2.60;2.35;;;9.20;99.90;;;;;;2562439;23;20083;-74
2023/01/03 03:45:51;;;;;;;2.97;2.20;;;9.10;99.90;;;;;;2562298;23;20015;-73
2023/01/03 03:47:03;;;;;;;2.42;2.20;;;9.10;99.90;;;;;;2549593;23;20295;-74
2023/01/03 03:48:10;;;;;;;3.15;2.30;;;9.10;99.90;;;;;;2551523;23;20037;-74
2023/01/03 03:50:54;;;;;;;2.58;2.25;;;9.10;99.90;;;;;;2564582;23;20152;-73
2023/01/03 03:51:57;;;;;;;3.03;2.35;;;9.10;99.90;;;;;;2562643;23;20008;-73
2023/01/03 03:53:03;;;;;;;3.22;2.50;;;9.10;99.90;;;;;;2562607;23;20008;-72
2023/01/03 03:54:09;;;;;;;3.88;2.30;;;9.10;99.90;;;;;;2562626;23;20011;-73
2023/01/03 03:55:19;;;;;;;2.63;2.30;;;9.10;99.90;;;;;;2562621;23;20004;-73
2023/01/03 03:56:27;;;;;;;3.35;2.50;;;9.00;99.90;;;;;;2562542;23;20028;-72
2023/01/03 03:57:39;;;;;;;3.55;2.40;;;9.10;99.90;;;;;;2562257;23;20383;-74
2023/01/03 03:58:42;;;;;;;4.00;2.45;;;9.10;99.90;;;;;;2562553;23;20014;-74
2023/01/03 03:59:48;;;;;;;2.33;2.13;;;9.10;99.90;;;;;;2549494;23;20035;-73
2023/01/03 04:00:50;;;;;;;2.35;2.15;;;9.10;99.90;;;;;;2552617;23;20013;-74
2023/01/03 04:01:54;;;;;;;2.67;2.42;;;9.10;99.90;;;;;;2562359;23;20004;-74
2023/01/03 04:02:57;;;;;;;4.68;2.50;;;9.10;99.90;;;;;;2562350;23;20374;-74
2023/01/03 04:04:05;;;;;;;4.15;2.42;;;9.10;99.90;;;;;;2562605;23;20047;-73
2023/01/03 04:05:09;;;;;;;3.10;2.40;;;9.10;99.90;;;;;;2562416;23;20336;-73
2023/01/03 04:06:46;;;;;;;2.85;2.22;;;9.10;99.90;;;;;;2562259;23;20040;-75
2023/01/03 04:07:47;;;;;;;2.95;2.40;;;9.10;99.90;;;;;;2557164;23;20008;-74
2023/01/03 04:08:48;;;;;;;2.83;2.50;;;9.10;99.90;;;;;;2564584;23;20555;-73
2023/01/03 04:09:49;;;;;;;2.60;2.25;;;9.10;99.90;;;;;;2564315;23;20083;-73
2023/01/03 04:10:49;;;;;;;3.67;2.35;;;9.10;99.90;;;;;;2549167;23;20012;-73
2023/01/03 04:11:50;;;;;;;3.55;2.40;;;9.10;99.90;;;;;;2549196;23;20381;-73
2023/01/03 04:12:52;;;;;;;3.38;2.20;;;9.10;99.90;;;;;;2562642;23;20012;-73
2023/01/03 04:13:53;;;;;;;2.72;2.25;;;9.10;99.90;;;;;;2538754;23;20016;-73
2023/01/03 04:14:53;;;;;;;3.05;2.53;;;9.00;99.90;;;;;;2513461;23;20084;-72
2023/01/03 04:15:54;;;;;;;3.92;2.72;;;9.00;99.90;;;;;;2536717;23;20325;-73
2023/01/03 04:16:54;;;;;;;3.45;2.80;;;9.00;99.90;;;;;;2562160;23;20058;-73
2023/01/03 04:17:55;;;;;;;3.83;2.50;;;9.00;99.90;;;;;;2548919;23;20001;-74
2023/01/03 04:18:55;;;;;;;3.75;2.63;;;8.90;99.90;;;;;;2549062;23;20474;-74
2023/01/03 04:19:56;;;;;;;3.00;2.65;;;8.90;99.90;;;;;;2564423;23;20012;-73
2023/01/03 04:20:57;;;;;;;3.85;2.70;;;8.90;99.90;;;;;;2561419;23;20004;-72
2023/01/03 04:21:57;;;;;;;4.25;2.67;;;8.90;99.90;;;;;;2561496;23;20008;-74
2023/01/03 04:22:58;;;;;;;3.22;2.72;;;8.90;99.90;;;;;;2562363;23;20004;-74
2023/01/03 04:23:58;;;;;;;6.22;3.30;;;8.90;99.90;;;;;;2564536;23;20008;-73
2023/01/03 04:24:59;;;;;;;4.25;2.80;;;8.90;99.90;;;;;;2562208;23;20004;-74
2023/01/03 04:25:59;;;;;;;4.80;2.50;;;8.80;99.90;;;;;;2562028;23;20301;-73
2023/01/03 04:27:00;;;;;;;3.78;2.45;;;8.90;99.90;;;;;;2562301;23;20067;-73
2023/01/03 04:28:00;;;;;;;3.65;2.95;;;8.90;99.90;;;;;;2562343;23;20212;-73
2023/01/03 04:29:01;;;;;;;3.97;2.40;;;8.80;99.90;;;;;;2549026;23;20005;-74
2023/01/03 04:30:03;;;;;;;4.25;2.58;;;8.80;99.90;;;;;;2550952;23;20403;-73
2023/01/03 04:31:03;;;;;;;3.47;2.20;;;8.80;99.90;;;;;;2562143;23;20074;-73
2023/01/03 04:32:04;;;;;;;3.10;2.30;;;8.80;99.90;;;;;;2562314;23;20314;-75
2023/01/03 04:33:05;;;;;;;3.45;2.40;;;8.80;99.90;;;;;;2562400;23;20094;-74
2023/01/03 04:34:05;;;;;;;2.45;2.00;;;8.80;99.90;;;;;;2564236;23;20015;-73
2023/01/03 04:35:06;;;;;;;2.50;2.13;;;8.80;99.90;;;;;;2562243;23;20008;-73
2023/01/03 04:36:07;;;;;;;3.90;2.40;;;8.80;99.90;;;;;;2561950;23;20062;-73
2023/01/03 04:37:08;;;;;;;2.60;2.00;;;8.80;99.90;;;;;;2562075;23;20342;-74
2023/01/03 04:38:08;;;;;;;3.13;2.10;;;8.80;99.90;;;;;;2562147;23;20016;-73
2023/01/03 04:39:09;;;;;;;2.65;2.20;;;8.80;99.90;;;;;;2564802;23;20005;-73
2023/01/03 04:40:10;;;;;;;2.97;2.20;;;8.90;99.90;;;;;;2549226;23;20677;-73
2023/01/03 04:41:11;;;;;;;3.08;2.10;;;8.90;99.90;;;;;;2549405;23;20382;-74
2023/01/03 04:44:51;;;;;;;2.45;2.00;;;8.90;99.90;;;;;;2559763;23;20030;-79
2023/01/03 04:45:51;;;;;;;2.70;2.10;;;8.90;99.90;;;;;;2549050;23;20012;-80
2023/01/03 04:46:52;;;;;;;3.67;2.13;;;9.00;99.90;;;;;;2549512;23;20005;-80
2023/01/03 04:47:53;;;;;;;3.10;2.13;;;9.00;99.90;;;;;;2549099;23;20076;-80
2023/01/03 04:48:53;;;;;;;2.78;2.20;;;9.00;99.90;;;;;;2551398;23;20012;-80
2023/01/03 04:49:54;;;;;;;3.28;2.00;;;9.00;99.90;;;;;;2562444;23;20306;-78
2023/01/03 04:50:57;;;;;;;2.65;2.10;;;9.00;99.90;;;;;;2562510;23;20078;-79
2023/01/03 04:51:57;;;;;;;2.67;1.83;;;9.00;99.90;;;;;;2562324;23;20004;-79
2023/01/03 04:52:58;;;;;;;2.38;2.10;;;9.00;99.90;;;;;;2564892;23;20009;-79
2023/01/03 04:53:59;;;;;;;2.40;2.20;;;9.00;99.90;;;;;;2562471;23;20016;-81
2023/01/03 04:55:00;;;;;;;4.88;2.50;;;9.00;99.90;;;;;;2562524;23;20004;-81
2023/01/03 04:56:00;;;;;;;4.00;2.30;;;9.00;99.90;;;;;;2562872;23;20281;-82
2023/01/03 04:57:01;;;;;;;2.33;2.10;;;9.00;99.90;;;;;;2563045;23;20000;-81
2023/01/03 04:58:02;;;;;;;3.47;2.38;;;9.00;99.90;;;;;;2562968;23;20172;-80
2023/01/03 04:59:03;;;;;;;3.35;2.38;;;9.00;99.90;;;;;;2564548;23;20007;-81
2023/01/03 05:00:04;;;;;;;3.75;2.30;;;9.00;99.90;;;;;;2562773;23;20390;-80
2023/01/03 05:01:08;;;;;;;2.95;2.33;;;9.00;99.90;;;;;;2562554;23;20063;-80
2023/01/03 05:02:09;;;;;;;3.53;2.38;;;9.00;99.90;;;;;;2563386;23;20111;-80
2023/01/03 05:03:10;;;;;;;3.65;2.85;;;9.00;99.90;;;;;;2562714;23;20123;-80
2023/01/03 05:04:11;;;;;;;6.07;2.92;;;9.00;99.90;;;;;;2562893;23;20016;-80
2023/01/03 05:05:11;;;;;;;3.83;3.00;;;9.00;99.90;;;;;;2564413;23;20005;-80
2023/01/03 05:06:13;;;;;;;3.78;2.70;;;9.00;99.90;;;;;;2562207;23;20005;-80
2023/01/03 05:07:13;;;;;;;3.63;2.67;;;9.00;99.90;;;;;;2562506;23;20016;-79
2023/01/03 05:08:14;;;;;;;3.10;2.10;;;9.00;99.90;;;;;;2562294;23;20454;-80
2023/01/03 05:09:14;;;;;;;3.70;2.28;;;9.00;99.90;;;;;;2564596;23;20009;-79
2023/01/03 05:10:15;;;;;;;3.28;2.40;;;9.00;99.90;;;;;;2562385;23;20933;-80
2023/01/03 05:11:16;;;;;;;4.05;2.20;;;9.00;99.90;;;;;;2562229;23;20225;-81
2023/01/03 05:12:16;;;;;;;2.53;2.10;;;9.00;99.90;;;;;;2549265;23;20008;-81
2023/01/03 05:13:17;;;;;;;4.93;2.38;;;9.10;99.90;;;;;;2551587;23;19993;-82
2023/01/03 05:14:17;;;;;;;4.28;2.38;;;9.00;99.90;;;;;;2562372;23;20062;-82
2023/01/03 05:15:18;;;;;;;4.13;2.20;;;9.00;99.90;;;;;;2562697;23;20434;-81
2023/01/03 05:16:19;;;;;;;2.40;2.00;;;9.10;99.90;;;;;;2562501;23;20005;-80
2023/01/03 05:17:20;;;;;;;3.80;2.20;;;9.10;99.90;;;;;;2564749;23;20035;-80
2023/01/03 05:18:21;;;;;;;4.70;2.28;;;9.10;99.90;;;;;;2562671;23;20350;-80
2023/01/03 05:19:21;;;;;;;3.15;2.30;;;9.10;99.90;;;;;;2562426;23;20095;-81
2023/01/03 05:25:52;;;;;;;4.90;2.67;;;9.10;99.90;;;;;;2563362;23;20001;-82
2023/01/03 05:26:53;;;;;;;4.68;2.80;;;9.10;99.90;;;;;;2564936;23;20031;-82
2023/01/03 05:27:55;;;;;;;3.53;2.80;;;9.10;99.90;;;;;;2562616;23;20008;-82
2023/01/03 05:28:56;;;;;;;5.05;2.40;;;9.10;99.90;;;;;;2562656;23;20422;-80
2023/01/03 05:29:57;;;;;;;4.00;2.78;;;9.10;99.90;;;;;;2562813;23;20460;-78
2023/01/03 05:30:58;;;;;;;3.78;2.78;;;9.10;99.90;;;;;;2562463;23;20040;-81
2023/01/03 05:31:58;;;;;;;3.83;2.42;;;9.10;99.90;;;;;;2564550;23;20009;-78
2023/01/03 05:32:59;;;;;;;4.28;2.53;;;9.10;99.90;;;;;;2562495;23;20055;-79
2023/01/03 05:33:59;;;;;;;4.65;2.40;;;9.10;99.90;;;;;;2548998;23;20347;-79
2023/01/03 05:35:00;;;;;;;2.83;2.45;;;9.10;99.90;;;;;;2551251;23;20099;-79
2023/01/03 05:36:00;;;;;;;4.68;2.38;;;9.10;99.90;;;;;;2562459;23;20389;-79
2023/01/03 05:37:01;;;;;;;4.53;2.58;;;9.10;99.90;;;;;;2562412;23;20012;-79
2023/01/03 05:38:02;;;;;;;5.13;2.40;;;9.10;99.90;;;;;;2562581;23;20001;-79
2023/01/03 05:39:05;;;;;;;6.90;3.00;;;9.10;99.90;;;;;;2562592;23;20464;-79
2023/01/03 05:40:06;;;;;;;3.63;2.53;;;9.10;99.90;;;;;;2562319;23;20013;-79
2023/01/03 05:41:07;;;;;;;5.63;2.40;;;9.00;99.90;;;;;;2564386;23;20009;-79
2023/01/03 05:42:08;;;;;;;4.25;2.30;;;9.10;99.90;;;;;;2565242;23;20400;-78
2023/01/03 05:43:08;;;;;;;2.60;2.33;;;9.10;99.90;;;;;;2563411;23;20004;-78
2023/01/03 05:44:09;;;;;;;2.35;2.13;;;9.00;99.90;;;;;;2562817;23;20059;-78
2023/01/03 05:45:10;;;;;;;4.00;2.35;;;9.00;99.90;;;;;;2560167;23;20031;-81
2023/01/03 05:46:10;;;;;;;3.30;2.38;;;9.00;99.90;;;;;;2549752;23;20005;-80
2023/01/03 05:47:11;;;;;;;3.80;2.60;;;9.00;99.90;;;;;;2550251;23;20016;-80
2023/01/03 05:48:11;;;;;;;3.22;2.50;;;9.00;99.90;;;;;;2562489;23;20036;-81
2023/01/03 05:49:12;;;;;;;4.72;2.40;;;9.00;99.90;;;;;;2562787;23;20004;-80
2023/01/03 05:50:12;;;;;;;4.28;2.50;;;9.00;99.90;;;;;;2565733;23;20008;-81
2023/01/03 05:51:13;;;;;;;4.65;2.40;;;9.00;99.90;;;;;;2563520;23;20499;-81
2023/01/03 05:52:13;;;;;;;3.42;2.30;;;9.00;99.90;;;;;;2563636;23;20008;-82
2023/01/03 05:53:14;;;;;;;3.05;2.30;;;9.00;99.90;;;;;;2563878;23;20000;-83
2023/01/03 05:54:17;;;;;;;3.30;2.10;;;9.00;99.90;;;;;;2566921;23;20040;-82
2023/01/03 05:55:18;;;;;;;3.03;2.30;;;9.00;99.90;;;;;;2565027;23;20016;-82
2023/01/03 05:56:18;;;;;;;3.72;2.70;;;9.00;99.90;;;;;;2565129;23;20009;-81
2023/01/03 05:57:19;;;;;;;3.88;2.42;;;9.00;99.90;;;;;;2564941;23;20083;-81
2023/01/03 05:58:19;;;;;;;4.80;2.50;;;9.00;99.90;;;;;;2564253;23;20212;-81
2023/01/03 05:59:21;;;;;;;7.95;2.70;;;9.00;99.90;;;;;;2565879;23;20004;-81
2023/01/03 06:00:22;;;;;;;3.95;2.75;;;9.00;99.90;;;;;;2563391;23;20009;-81
2023/01/03 06:01:25;;;;;;;5.00;2.63;;;9.00;99.90;;;;;;2564217;23;20425;-81
2023/01/03 06:02:27;;;;;;;6.20;2.83;;;9.00;99.90;;;;;;2563031;23;20036;-80
2023/01/03 06:03:28;;;;;;;3.53;2.60;;;9.00;99.90;;;;;;2552514;23;20032;-80
2023/01/03 06:04:29;;;;;;;3.95;2.53;;;9.00;99.90;;;;;;2552324;23;20016;-81
2023/01/03 06:05:29;;;;;;;4.93;2.50;;;9.00;99.90;;;;;;2562260;23;20380;-81
2023/01/03 06:06:30;;;;;;;3.58;2.60;;;9.10;99.90;;;;;;2562051;23;19997;-80
2023/01/03 06:07:31;;;;;;;3.20;2.65;;;9.00;99.90;;;;;;2562918;23;20106;-80
2023/01/03 06:08:32;;;;;;;3.28;2.50;;;9.00;99.90;;;;;;2565300;23;20083;-79
2023/01/03 06:09:33;;;;;;;3.53;2.50;;;9.00;99.90;;;;;;2563233;23;20108;-79
2023/01/03 06:10:33;;;;;;;5.28;2.72;;;9.00;99.90;;;;;;2562850;23;20012;-78
2023/01/03 06:11:34;;;;;;;3.45;2.72;;;9.00;99.90;;;;;;2562022;23;20035;-81
2023/01/03 06:12:35;;;;;;;3.08;2.55;;;9.00;99.90;;;;;;2564137;23;20035;-79
2023/01/03 06:13:36;;;;;;;3.58;2.80;;;8.90;99.90;;;;;;2549263;23;20052;-80
2023/01/03 06:14:36;;;;;;;4.35;3.05;;;8.90;99.90;;;;;;2549945;23;20020;-80